sensor_id;sensor_type;location;lat;lon;timestamp;P1;durP1;ratioP1;P2;durP2;ratioP2
29774;SDS011;16676;51.202;6.774;2022-09-28T00:00:42;2.03;;;1.00;;
29774;SDS011;16676;51.202;6.774;2022-09-28T00:04:46;2.55;;;0.80;;
29774;SDS011;16676;51.202;6.774;2022-09-28T00:08:48;2.53;;;0.80;;
29774;SDS011;16676;51.202;6.774;2022-09-28T00:12:53;1.38;;;0.70;;
29774;SDS011;16676;51.202;6.774;2022-09-28T00:16:55;1.65;;;0.85;;
29774;SDS011;16676;51.202;6.774;2022-09-28T00:21:01;1.50;;;0.80;;
29774;SDS011;16676;51.202;6.774;2022-09-28T00:25:05;2.15;;;0.80;;
29774;SDS011;16676;51.202;6.774;2022-09-28T00:29:11;1.13;;;0.57;;
29774;SDS011;16676;51.202;6.774;2022-09-28T00:33:24;1.58;;;0.90;;
29774;SDS011;16676;51.202;6.774;2022-09-28T00:37:25;1.45;;;0.80;;
29774;SDS011;16676;51.202;6.774;2022-09-28T00:41:27;1.58;;;0.90;;
29774;SDS011;16676;51.202;6.774;2022-09-28T00:45:31;1.75;;;0.80;;
29774;SDS011;16676;51.202;6.774;2022-09-28T00:49:34;2.65;;;0.90;;
29774;SDS011;16676;51.202;6.774;2022-09-28T00:53:43;1.38;;;0.90;;
29774;SDS011;16676;51.202;6.774;2022-09-28T00:57:46;1.85;;;0.98;;
29774;SDS011;16676;51.202;6.774;2022-09-28T01:01:53;1.60;;;0.80;;
29774;SDS011;16676;51.202;6.774;2022-09-28T01:11:12;1.45;;;1.10;;
29774;SDS011;16676;51.202;6.774;2022-09-28T01:15:14;1.83;;;0.70;;
29774;SDS011;16676;51.202;6.774;2022-09-28T01:19:23;0.68;;;0.50;;
29774;SDS011;16676;51.202;6.774;2022-09-28T01:23:48;2.05;;;0.63;;
29774;SDS011;16676;51.202;6.774;2022-09-28T01:28:04;1.75;;;0.90;;
29774;SDS011;16676;51.202;6.774;2022-09-28T01:36:32;2.30;;;0.75;;
29774;SDS011;16676;51.202;6.774;2022-09-28T01:40:39;1.58;;;0.70;;
29774;SDS011;16676;51.202;6.774;2022-09-28T01:44:43;1.20;;;0.60;;
29774;SDS011;16676;51.202;6.774;2022-09-28T01:48:49;2.28;;;0.77;;
29774;SDS011;16676;51.202;6.774;2022-09-28T01:52:57;1.40;;;0.80;;
29774;SDS011;16676;51.202;6.774;2022-09-28T01:57:04;1.45;;;0.82;;
29774;SDS011;16676;51.202;6.774;2022-09-28T02:01:12;1.80;;;0.85;;
29774;SDS011;16676;51.202;6.774;2022-09-28T02:09:22;1.45;;;0.77;;
29774;SDS011;16676;51.202;6.774;2022-09-28T02:13:29;1.52;;;0.80;;
29774;SDS011;16676;51.202;6.774;2022-09-28T02:17:34;1.13;;;0.80;;
29774;SDS011;16676;51.202;6.774;2022-09-28T02:21:38;0.95;;;0.50;;
29774;SDS011;16676;51.202;6.774;2022-09-28T02:25:44;1.83;;;0.80;;
29774;SDS011;16676;51.202;6.774;2022-09-28T02:29:51;1.35;;;0.80;;
29774;SDS011;16676;51.202;6.774;2022-09-28T02:33:55;1.63;;;0.80;;
29774;SDS011;16676;51.202;6.774;2022-09-28T02:37:57;1.45;;;0.68;;
29774;SDS011;16676;51.202;6.774;2022-09-28T02:42:01;2.05;;;0.80;;
29774;SDS011;16676;51.202;6.774;2022-09-28T02:46:13;1.27;;;0.73;;
29774;SDS011;16676;51.202;6.774;2022-09-28T02:50:24;0.70;;;0.63;;
29774;SDS011;16676;51.202;6.774;2022-09-28T02:54:36;1.60;;;0.88;;
29774;SDS011;16676;51.202;6.774;2022-09-28T02:58:49;1.52;;;0.73;;
29774;SDS011;16676;51.202;6.774;2022-09-28T03:03:00;1.20;;;0.70;;
29774;SDS011;16676;51.202;6.774;2022-09-28T03:07:12;2.08;;;0.70;;
29774;SDS011;16676;51.202;6.774;2022-09-28T03:11:19;2.17;;;0.82;;
29774;SDS011;16676;51.202;6.774;2022-09-28T03:15:24;1.13;;;0.75;;
29774;SDS011;16676;51.202;6.774;2022-09-28T03:19:29;1.40;;;0.85;;
29774;SDS011;16676;51.202;6.774;2022-09-28T03:23:34;1.17;;;0.70;;
29774;SDS011;16676;51.202;6.774;2022-09-28T03:27:36;0.80;;;0.50;;
29774;SDS011;16676;51.202;6.774;2022-09-28T03:31:38;1.52;;;0.70;;
29774;SDS011;16676;51.202;6.774;2022-09-28T03:35:40;1.70;;;0.70;;
29774;SDS011;16676;51.202;6.774;2022-09-28T03:39:43;2.17;;;0.70;;
29774;SDS011;16676;51.202;6.774;2022-09-28T03:43:45;1.05;;;0.60;;
29774;SDS011;16676;51.202;6.774;2022-09-28T03:47:47;1.48;;;0.70;;
29774;SDS011;16676;51.202;6.774;2022-09-28T03:51:49;1.00;;;0.47;;
29774;SDS011;16676;51.202;6.774;2022-09-28T03:55:53;1.80;;;0.80;;
29774;SDS011;16676;51.202;6.774;2022-09-28T03:59:55;1.05;;;0.80;;
29774;SDS011;16676;51.202;6.774;2022-09-28T04:03:57;1.27;;;0.80;;
29774;SDS011;16676;51.202;6.774;2022-09-28T04:07:59;0.93;;;0.70;;
29774;SDS011;16676;51.202;6.774;2022-09-28T04:12:03;1.33;;;0.65;;
29774;SDS011;16676;51.202;6.774;2022-09-28T04:16:05;1.63;;;0.80;;
29774;SDS011;16676;51.202;6.774;2022-09-28T04:20:07;1.17;;;0.75;;
29774;SDS011;16676;51.202;6.774;2022-09-28T04:24:10;1.20;;;0.80;;
29774;SDS011;16676;51.202;6.774;2022-09-28T04:28:14;1.13;;;0.52;;
29774;SDS011;16676;51.202;6.774;2022-09-28T04:32:35;0.98;;;0.60;;
29774;SDS011;16676;51.202;6.774;2022-09-28T04:36:37;1.80;;;0.70;;
29774;SDS011;16676;51.202;6.774;2022-09-28T04:40:39;2.45;;;0.95;;
29774;SDS011;16676;51.202;6.774;2022-09-28T04:44:43;1.00;;;0.60;;
29774;SDS011;16676;51.202;6.774;2022-09-28T04:48:45;1.38;;;0.80;;
29774;SDS011;16676;51.202;6.774;2022-09-28T04:52:47;1.40;;;0.40;;
29774;SDS011;16676;51.202;6.774;2022-09-28T04:56:48;0.70;;;0.50;;
29774;SDS011;16676;51.202;6.774;2022-09-28T05:00:55;1.38;;;0.80;;
29774;SDS011;16676;51.202;6.774;2022-09-28T05:04:59;1.00;;;0.60;;
29774;SDS011;16676;51.202;6.774;2022-09-28T05:09:01;1.45;;;0.60;;
29774;SDS011;16676;51.202;6.774;2022-09-28T05:13:03;0.77;;;0.52;;
29774;SDS011;16676;51.202;6.774;2022-09-28T05:17:06;1.65;;;0.77;;
29774;SDS011;16676;51.202;6.774;2022-09-28T05:21:09;0.85;;;0.63;;
29774;SDS011;16676;51.202;6.774;2022-09-28T05:25:12;1.17;;;0.60;;
29774;SDS011;16676;51.202;6.774;2022-09-28T05:29:14;1.13;;;0.70;;
29774;SDS011;16676;51.202;6.774;2022-09-28T05:33:17;0.90;;;0.60;;
29774;SDS011;16676;51.202;6.774;2022-09-28T05:37:19;1.10;;;0.60;;
29774;SDS011;16676;51.202;6.774;2022-09-28T05:41:21;1.33;;;0.68;;
29774;SDS011;16676;51.202;6.774;2022-09-28T05:45:23;1.35;;;0.70;;
29774;SDS011;16676;51.202;6.774;2022-09-28T05:49:26;1.30;;;0.50;;
29774;SDS011;16676;51.202;6.774;2022-09-28T05:53:30;1.50;;;0.70;;
29774;SDS011;16676;51.202;6.774;2022-09-28T05:57:32;1.63;;;0.98;;
29774;SDS011;16676;51.202;6.774;2022-09-28T06:01:34;3.20;;;1.58;;
29774;SDS011;16676;51.202;6.774;2022-09-28T06:05:38;2.22;;;1.55;;
29774;SDS011;16676;51.202;6.774;2022-09-28T06:09:40;3.42;;;1.60;;
29774;SDS011;16676;51.202;6.774;2022-09-28T06:13:42;3.35;;;1.45;;
29774;SDS011;16676;51.202;6.774;2022-09-28T06:17:44;5.18;;;1.33;;
29774;SDS011;16676;51.202;6.774;2022-09-28T06:21:47;3.65;;;1.30;;
29774;SDS011;16676;51.202;6.774;2022-09-28T06:25:49;2.92;;;1.05;;
29774;SDS011;16676;51.202;6.774;2022-09-28T06:29:51;2.97;;;1.20;;
29774;SDS011;16676;51.202;6.774;2022-09-28T06:33:53;2.45;;;1.20;;
29774;SDS011;16676;51.202;6.774;2022-09-28T06:37:57;2.45;;;0.98;;
29774;SDS011;16676;51.202;6.774;2022-09-28T06:42:00;2.90;;;1.00;;
29774;SDS011;16676;51.202;6.774;2022-09-28T06:46:03;3.35;;;1.10;;
29774;SDS011;16676;51.202;6.774;2022-09-28T06:50:07;4.72;;;1.23;;
29774;SDS011;16676;51.202;6.774;2022-09-28T06:54:12;2.47;;;1.33;;
29774;SDS011;16676;51.202;6.774;2022-09-28T06:58:15;2.10;;;1.17;;
29774;SDS011;16676;51.202;6.774;2022-09-28T07:02:18;1.77;;;0.93;;
29774;SDS011;16676;51.202;6.774;2022-09-28T07:06:21;1.58;;;0.85;;
29774;SDS011;16676;51.202;6.774;2022-09-28T07:10:27;2.40;;;0.90;;
29774;SDS011;16676;51.202;6.774;2022-09-28T07:14:31;1.42;;;0.80;;
29774;SDS011;16676;51.202;6.774;2022-09-28T07:18:34;3.55;;;0.85;;
29774;SDS011;16676;51.202;6.774;2022-09-28T07:22:35;1.15;;;0.80;;
29774;SDS011;16676;51.202;6.774;2022-09-28T07:26:39;2.55;;;0.90;;
29774;SDS011;16676;51.202;6.774;2022-09-28T07:30:44;2.65;;;1.10;;
29774;SDS011;16676;51.202;6.774;2022-09-28T07:34:46;3.55;;;1.10;;
29774;SDS011;16676;51.202;6.774;2022-09-28T07:38:48;1.77;;;0.90;;
29774;SDS011;16676;51.202;6.774;2022-09-28T07:42:52;2.42;;;0.75;;
29774;SDS011;16676;51.202;6.774;2022-09-28T07:46:54;1.98;;;0.80;;
29774;SDS011;16676;51.202;6.774;2022-09-28T07:50:56;2.17;;;0.88;;
29774;SDS011;16676;51.202;6.774;2022-09-28T07:54:59;1.90;;;0.80;;
29774;SDS011;16676;51.202;6.774;2022-09-28T07:59:02;2.47;;;1.00;;
29774;SDS011;16676;51.202;6.774;2022-09-28T08:03:04;2.92;;;0.75;;
29774;SDS011;16676;51.202;6.774;2022-09-28T08:07:07;2.03;;;1.02;;
29774;SDS011;16676;51.202;6.774;2022-09-28T08:11:10;1.10;;;0.80;;
29774;SDS011;16676;51.202;6.774;2022-09-28T08:15:14;1.38;;;0.60;;
29774;SDS011;16676;51.202;6.774;2022-09-28T08:19:16;1.25;;;0.77;;
29774;SDS011;16676;51.202;6.774;2022-09-28T08:23:18;2.15;;;0.80;;
29774;SDS011;16676;51.202;6.774;2022-09-28T08:27:20;1.58;;;0.80;;
29774;SDS011;16676;51.202;6.774;2022-09-28T08:31:23;1.58;;;0.82;;
29774;SDS011;16676;51.202;6.774;2022-09-28T08:35:25;1.67;;;0.80;;
29774;SDS011;16676;51.202;6.774;2022-09-28T08:39:27;2.28;;;0.80;;
29774;SDS011;16676;51.202;6.774;2022-09-28T08:43:40;1.50;;;0.77;;
29774;SDS011;16676;51.202;6.774;2022-09-28T08:48:00;1.23;;;0.60;;
29774;SDS011;16676;51.202;6.774;2022-09-28T08:52:25;1.58;;;0.75;;
29774;SDS011;16676;51.202;6.774;2022-09-28T08:56:36;2.60;;;0.90;;
29774;SDS011;16676;51.202;6.774;2022-09-28T09:00:44;2.45;;;0.70;;
29774;SDS011;16676;51.202;6.774;2022-09-28T09:04:49;0.82;;;0.65;;
29774;SDS011;16676;51.202;6.774;2022-09-28T09:08:56;1.02;;;0.60;;
29774;SDS011;16676;51.202;6.774;2022-09-28T09:13:05;1.02;;;0.60;;
29774;SDS011;16676;51.202;6.774;2022-09-28T09:17:26;1.50;;;0.70;;
29774;SDS011;16676;51.202;6.774;2022-09-28T09:21:40;1.70;;;0.70;;
29774;SDS011;16676;51.202;6.774;2022-09-28T09:25:48;1.95;;;0.55;;
29774;SDS011;16676;51.202;6.774;2022-09-28T09:29:58;1.10;;;0.70;;
29774;SDS011;16676;51.202;6.774;2022-09-28T09:38:34;1.63;;;0.63;;
29774;SDS011;16676;51.202;6.774;2022-09-28T09:42:51;1.02;;;0.65;;
29774;SDS011;16676;51.202;6.774;2022-09-28T09:47:01;1.25;;;0.75;;
29774;SDS011;16676;51.202;6.774;2022-09-28T09:51:10;2.90;;;0.90;;
29774;SDS011;16676;51.202;6.774;2022-09-28T09:55:20;1.45;;;0.77;;
29774;SDS011;16676;51.202;6.774;2022-09-28T09:59:26;0.65;;;0.50;;
29774;SDS011;16676;51.202;6.774;2022-09-28T10:03:33;2.17;;;0.60;;
29774;SDS011;16676;51.202;6.774;2022-09-28T10:07:38;1.45;;;0.80;;
29774;SDS011;16676;51.202;6.774;2022-09-28T10:11:46;1.77;;;0.73;;
29774;SDS011;16676;51.202;6.774;2022-09-28T10:15:49;1.10;;;0.45;;
29774;SDS011;16676;51.202;6.774;2022-09-28T10:19:52;1.83;;;0.80;;
29774;SDS011;16676;51.202;6.774;2022-09-28T10:23:57;1.30;;;0.73;;
29774;SDS011;16676;51.202;6.774;2022-09-28T10:28:03;1.13;;;0.73;;
29774;SDS011;16676;51.202;6.774;2022-09-28T10:32:16;1.15;;;0.63;;
29774;SDS011;16676;51.202;6.774;2022-09-28T10:36:19;1.40;;;0.60;;
29774;SDS011;16676;51.202;6.774;2022-09-28T10:40:25;1.08;;;0.60;;
29774;SDS011;16676;51.202;6.774;2022-09-28T10:44:37;1.80;;;0.60;;
29774;SDS011;16676;51.202;6.774;2022-09-28T10:48:51;1.73;;;0.70;;
29774;SDS011;16676;51.202;6.774;2022-09-28T10:52:57;0.90;;;0.60;;
29774;SDS011;16676;51.202;6.774;2022-09-28T10:57:23;0.88;;;0.60;;
29774;SDS011;16676;51.202;6.774;2022-09-28T11:01:30;0.55;;;0.47;;
29774;SDS011;16676;51.202;6.774;2022-09-28T11:05:33;1.00;;;0.75;;
29774;SDS011;16676;51.202;6.774;2022-09-28T11:09:39;1.88;;;0.70;;
29774;SDS011;16676;51.202;6.774;2022-09-28T11:13:43;1.20;;;0.60;;
29774;SDS011;16676;51.202;6.774;2022-09-28T11:17:49;1.15;;;0.70;;
29774;SDS011;16676;51.202;6.774;2022-09-28T11:21:51;0.60;;;0.43;;
29774;SDS011;16676;51.202;6.774;2022-09-28T11:25:57;1.33;;;0.60;;
29774;SDS011;16676;51.202;6.774;2022-09-28T11:30:01;1.55;;;0.60;;
29774;SDS011;16676;51.202;6.774;2022-09-28T11:34:11;0.85;;;0.63;;
29774;SDS011;16676;51.202;6.774;2022-09-28T11:38:27;1.40;;;0.60;;
29774;SDS011;16676;51.202;6.774;2022-09-28T11:42:36;1.10;;;0.60;;
29774;SDS011;16676;51.202;6.774;2022-09-28T11:46:48;0.63;;;0.50;;
29774;SDS011;16676;51.202;6.774;2022-09-28T11:51:04;1.13;;;0.60;;
29774;SDS011;16676;51.202;6.774;2022-09-28T11:55:13;1.02;;;0.50;;
29774;SDS011;16676;51.202;6.774;2022-09-28T11:59:23;0.80;;;0.50;;
29774;SDS011;16676;51.202;6.774;2022-09-28T12:03:32;0.68;;;0.60;;
29774;SDS011;16676;51.202;6.774;2022-09-28T12:07:41;0.50;;;0.47;;
29774;SDS011;16676;51.202;6.774;2022-09-28T12:11:47;0.70;;;0.60;;
29774;SDS011;16676;51.202;6.774;2022-09-28T12:15:54;1.42;;;0.50;;
29774;SDS011;16676;51.202;6.774;2022-09-28T12:20:00;1.10;;;0.60;;
29774;SDS011;16676;51.202;6.774;2022-09-28T12:24:11;0.47;;;0.45;;
29774;SDS011;16676;51.202;6.774;2022-09-28T12:28:17;1.70;;;0.60;;
29774;SDS011;16676;51.202;6.774;2022-09-28T12:32:30;0.90;;;0.50;;
29774;SDS011;16676;51.202;6.774;2022-09-28T12:36:40;1.23;;;0.50;;
29774;SDS011;16676;51.202;6.774;2022-09-28T12:40:55;0.60;;;0.50;;
29774;SDS011;16676;51.202;6.774;2022-09-28T12:49:29;0.70;;;0.40;;
29774;SDS011;16676;51.202;6.774;2022-09-28T12:53:38;0.95;;;0.50;;
29774;SDS011;16676;51.202;6.774;2022-09-28T12:58:02;1.30;;;0.50;;
29774;SDS011;16676;51.202;6.774;2022-09-28T13:02:21;0.63;;;0.47;;
29774;SDS011;16676;51.202;6.774;2022-09-28T13:06:44;0.95;;;0.55;;
29774;SDS011;16676;51.202;6.774;2022-09-28T13:10:54;0.85;;;0.50;;
29774;SDS011;16676;51.202;6.774;2022-09-28T13:15:14;0.73;;;0.52;;
29774;SDS011;16676;51.202;6.774;2022-09-28T13:19:26;0.57;;;0.40;;
29774;SDS011;16676;51.202;6.774;2022-09-28T13:23:37;0.90;;;0.60;;
29774;SDS011;16676;51.202;6.774;2022-09-28T13:27:43;1.20;;;0.50;;
29774;SDS011;16676;51.202;6.774;2022-09-28T13:31:52;0.93;;;0.60;;
29774;SDS011;16676;51.202;6.774;2022-09-28T13:35:56;0.57;;;0.40;;
29774;SDS011;16676;51.202;6.774;2022-09-28T13:39:58;0.50;;;0.50;;
29774;SDS011;16676;51.202;6.774;2022-09-28T13:44:15;0.67;;;0.53;;
29774;SDS011;16676;51.202;6.774;2022-09-28T13:48:38;0.60;;;0.47;;
29774;SDS011;16676;51.202;6.774;2022-09-28T13:52:48;0.47;;;0.47;;
29774;SDS011;16676;51.202;6.774;2022-09-28T13:57:00;0.55;;;0.50;;
29774;SDS011;16676;51.202;6.774;2022-09-28T14:01:11;0.57;;;0.43;;
29774;SDS011;16676;51.202;6.774;2022-09-28T14:10:08;0.57;;;0.47;;
29774;SDS011;16676;51.202;6.774;2022-09-28T14:18:45;0.60;;;0.50;;
29774;SDS011;16676;51.202;6.774;2022-09-28T14:27:51;0.60;;;0.50;;
29774;SDS011;16676;51.202;6.774;2022-09-28T14:32:02;1.10;;;0.60;;
29774;SDS011;16676;51.202;6.774;2022-09-28T14:36:06;0.65;;;0.35;;
29774;SDS011;16676;51.202;6.774;2022-09-28T14:40:55;0.90;;;0.40;;
29774;SDS011;16676;51.202;6.774;2022-09-28T14:45:29;0.75;;;0.40;;
29774;SDS011;16676;51.202;6.774;2022-09-28T14:49:42;0.40;;;0.32;;
29774;SDS011;16676;51.202;6.774;2022-09-28T14:53:48;1.25;;;0.50;;
29774;SDS011;16676;51.202;6.774;2022-09-28T14:57:54;0.85;;;0.50;;
29774;SDS011;16676;51.202;6.774;2022-09-28T15:01:57;0.88;;;0.30;;
29774;SDS011;16676;51.202;6.774;2022-09-28T15:06:01;0.70;;;0.50;;
29774;SDS011;16676;51.202;6.774;2022-09-28T15:10:03;1.13;;;0.50;;
29774;SDS011;16676;51.202;6.774;2022-09-28T15:14:22;1.08;;;0.47;;
29774;SDS011;16676;51.202;6.774;2022-09-28T15:23:21;0.77;;;0.40;;
29774;SDS011;16676;51.202;6.774;2022-09-28T15:27:25;0.40;;;0.30;;
29774;SDS011;16676;51.202;6.774;2022-09-28T15:31:36;1.92;;;0.50;;
29774;SDS011;16676;51.202;6.774;2022-09-28T15:35:38;2.70;;;0.40;;
29774;SDS011;16676;51.202;6.774;2022-09-28T15:39:40;1.52;;;0.40;;
29774;SDS011;16676;51.202;6.774;2022-09-28T15:43:45;0.68;;;0.45;;
29774;SDS011;16676;51.202;6.774;2022-09-28T15:48:18;1.08;;;0.43;;
29774;SDS011;16676;51.202;6.774;2022-09-28T15:52:27;0.30;;;0.30;;
29774;SDS011;16676;51.202;6.774;2022-09-28T15:56:48;0.40;;;0.30;;
29774;SDS011;16676;51.202;6.774;2022-09-28T16:01:16;0.45;;;0.38;;
29774;SDS011;16676;51.202;6.774;2022-09-28T16:05:30;0.95;;;0.40;;
29774;SDS011;16676;51.202;6.774;2022-09-28T16:09:51;0.90;;;0.40;;
29774;SDS011;16676;51.202;6.774;2022-09-28T16:13:55;2.88;;;0.52;;
29774;SDS011;16676;51.202;6.774;2022-09-28T16:18:04;3.00;;;0.55;;
29774;SDS011;16676;51.202;6.774;2022-09-28T16:22:19;3.08;;;0.88;;
29774;SDS011;16676;51.202;6.774;2022-09-28T16:26:30;17.20;;;3.17;;
29774;SDS011;16676;51.202;6.774;2022-09-28T16:30:33;38.97;;;9.05;;
29774;SDS011;16676;51.202;6.774;2022-09-28T16:34:35;89.75;;;21.83;;
29774;SDS011;16676;51.202;6.774;2022-09-28T16:38:39;98.50;;;23.50;;
29774;SDS011;16676;51.202;6.774;2022-09-28T16:42:44;112.72;;;27.67;;
29774;SDS011;16676;51.202;6.774;2022-09-28T16:46:46;110.35;;;27.70;;
29774;SDS011;16676;51.202;6.774;2022-09-28T16:50:48;95.18;;;23.23;;
29774;SDS011;16676;51.202;6.774;2022-09-28T16:54:52;78.30;;;20.48;;
29774;SDS011;16676;51.202;6.774;2022-09-28T16:59:12;57.30;;;15.45;;
29774;SDS011;16676;51.202;6.774;2022-09-28T17:03:15;51.92;;;14.15;;
29774;SDS011;16676;51.202;6.774;2022-09-28T17:07:18;77.63;;;19.65;;
29774;SDS011;16676;51.202;6.774;2022-09-28T17:11:22;58.58;;;18.60;;
29774;SDS011;16676;51.202;6.774;2022-09-28T17:15:23;54.92;;;18.45;;
29774;SDS011;16676;51.202;6.774;2022-09-28T17:19:25;57.25;;;17.30;;
29774;SDS011;16676;51.202;6.774;2022-09-28T17:23:30;48.75;;;16.63;;
29774;SDS011;16676;51.202;6.774;2022-09-28T17:27:33;52.40;;;16.75;;
29774;SDS011;16676;51.202;6.774;2022-09-28T17:31:36;58.15;;;15.73;;
29774;SDS011;16676;51.202;6.774;2022-09-28T17:35:37;52.88;;;15.35;;
29774;SDS011;16676;51.202;6.774;2022-09-28T17:39:41;49.90;;;16.42;;
29774;SDS011;16676;51.202;6.774;2022-09-28T17:43:45;54.30;;;15.90;;
29774;SDS011;16676;51.202;6.774;2022-09-28T17:47:47;50.70;;;18.08;;
29774;SDS011;16676;51.202;6.774;2022-09-28T17:51:49;54.50;;;23.92;;
29774;SDS011;16676;51.202;6.774;2022-09-28T17:55:52;54.47;;;21.92;;
29774;SDS011;16676;51.202;6.774;2022-09-28T17:59:55;54.97;;;21.23;;
29774;SDS011;16676;51.202;6.774;2022-09-28T18:03:58;52.03;;;22.10;;
29774;SDS011;16676;51.202;6.774;2022-09-28T18:08:01;50.22;;;20.90;;
29774;SDS011;16676;51.202;6.774;2022-09-28T18:12:03;45.97;;;19.48;;
29774;SDS011;16676;51.202;6.774;2022-09-28T18:16:09;44.33;;;18.38;;
29774;SDS011;16676;51.202;6.774;2022-09-28T18:20:12;43.75;;;17.70;;
29774;SDS011;16676;51.202;6.774;2022-09-28T18:24:15;46.08;;;16.67;;
29774;SDS011;16676;51.202;6.774;2022-09-28T18:28:17;37.90;;;15.35;;
29774;SDS011;16676;51.202;6.774;2022-09-28T18:32:22;34.08;;;13.13;;
29774;SDS011;16676;51.202;6.774;2022-09-28T18:36:26;31.70;;;11.63;;
29774;SDS011;16676;51.202;6.774;2022-09-28T18:40:28;33.65;;;11.13;;
29774;SDS011;16676;51.202;6.774;2022-09-28T18:44:31;24.98;;;10.55;;
29774;SDS011;16676;51.202;6.774;2022-09-28T18:48:35;26.63;;;9.45;;
29774;SDS011;16676;51.202;6.774;2022-09-28T18:52:38;21.60;;;8.13;;
29774;SDS011;16676;51.202;6.774;2022-09-28T18:56:40;21.17;;;8.82;;
29774;SDS011;16676;51.202;6.774;2022-09-28T19:00:42;19.88;;;7.72;;
29774;SDS011;16676;51.202;6.774;2022-09-28T19:04:48;21.27;;;7.22;;
29774;SDS011;16676;51.202;6.774;2022-09-28T19:08:50;20.98;;;7.07;;
29774;SDS011;16676;51.202;6.774;2022-09-28T19:12:54;19.27;;;7.20;;
29774;SDS011;16676;51.202;6.774;2022-09-28T19:16:56;16.75;;;6.22;;
29774;SDS011;16676;51.202;6.774;2022-09-28T19:21:02;18.33;;;6.70;;
29774;SDS011;16676;51.202;6.774;2022-09-28T19:25:05;15.82;;;6.28;;
29774;SDS011;16676;51.202;6.774;2022-09-28T19:29:08;16.88;;;5.78;;
29774;SDS011;16676;51.202;6.774;2022-09-28T19:33:10;18.67;;;5.65;;
29774;SDS011;16676;51.202;6.774;2022-09-28T19:37:13;15.80;;;5.20;;
29774;SDS011;16676;51.202;6.774;2022-09-28T19:41:16;17.10;;;5.80;;
29774;SDS011;16676;51.202;6.774;2022-09-28T19:45:33;20.27;;;6.05;;
29774;SDS011;16676;51.202;6.774;2022-09-28T19:49:36;14.63;;;5.68;;
29774;SDS011;16676;51.202;6.774;2022-09-28T19:53:41;14.32;;;5.20;;
29774;SDS011;16676;51.202;6.774;2022-09-28T19:57:43;12.02;;;5.00;;
29774;SDS011;16676;51.202;6.774;2022-09-28T20:01:46;12.43;;;5.25;;
29774;SDS011;16676;51.202;6.774;2022-09-28T20:05:54;12.65;;;5.18;;
29774;SDS011;16676;51.202;6.774;2022-09-28T20:09:58;17.13;;;5.45;;
29774;SDS011;16676;51.202;6.774;2022-09-28T20:14:00;15.73;;;5.28;;
29774;SDS011;16676;51.202;6.774;2022-09-28T20:18:06;14.15;;;5.00;;
29774;SDS011;16676;51.202;6.774;2022-09-28T20:22:08;11.20;;;4.38;;
29774;SDS011;16676;51.202;6.774;2022-09-28T20:26:13;15.35;;;5.50;;
29774;SDS011;16676;51.202;6.774;2022-09-28T20:30:15;14.98;;;5.25;;
29774;SDS011;16676;51.202;6.774;2022-09-28T20:34:17;12.90;;;5.03;;
29774;SDS011;16676;51.202;6.774;2022-09-28T20:38:19;11.93;;;4.28;;
29774;SDS011;16676;51.202;6.774;2022-09-28T20:42:23;13.27;;;4.82;;
29774;SDS011;16676;51.202;6.774;2022-09-28T20:46:25;13.30;;;4.72;;
29774;SDS011;16676;51.202;6.774;2022-09-28T20:50:28;14.73;;;4.93;;
29774;SDS011;16676;51.202;6.774;2022-09-28T20:54:30;12.55;;;4.63;;
29774;SDS011;16676;51.202;6.774;2022-09-28T20:58:33;11.32;;;4.25;;
29774;SDS011;16676;51.202;6.774;2022-09-28T21:02:38;10.57;;;4.32;;
29774;SDS011;16676;51.202;6.774;2022-09-28T21:06:40;9.75;;;4.72;;
29774;SDS011;16676;51.202;6.774;2022-09-28T21:10:42;10.25;;;4.18;;
29774;SDS011;16676;51.202;6.774;2022-09-28T21:14:46;10.35;;;4.45;;
29774;SDS011;16676;51.202;6.774;2022-09-28T21:18:48;11.60;;;4.40;;
29774;SDS011;16676;51.202;6.774;2022-09-28T21:22:50;11.57;;;4.30;;
29774;SDS011;16676;51.202;6.774;2022-09-28T21:26:52;10.00;;;4.05;;
29774;SDS011;16676;51.202;6.774;2022-09-28T21:30:56;9.48;;;4.00;;
29774;SDS011;16676;51.202;6.774;2022-09-28T21:34:58;10.68;;;4.03;;
29774;SDS011;16676;51.202;6.774;2022-09-28T21:39:00;10.98;;;4.43;;
29774;SDS011;16676;51.202;6.774;2022-09-28T21:43:02;8.73;;;4.00;;
29774;SDS011;16676;51.202;6.774;2022-09-28T21:47:06;11.27;;;4.00;;
29774;SDS011;16676;51.202;6.774;2022-09-28T21:51:09;11.98;;;4.30;;
29774;SDS011;16676;51.202;6.774;2022-09-28T21:55:14;11.10;;;3.95;;
29774;SDS011;16676;51.202;6.774;2022-09-28T21:59:16;8.77;;;3.67;;
29774;SDS011;16676;51.202;6.774;2022-09-28T22:03:19;9.73;;;3.80;;
29774;SDS011;16676;51.202;6.774;2022-09-28T22:07:21;8.02;;;3.67;;
29774;SDS011;16676;51.202;6.774;2022-09-28T22:11:24;9.52;;;3.90;;
29774;SDS011;16676;51.202;6.774;2022-09-28T22:15:27;9.23;;;4.57;;
29774;SDS011;16676;51.202;6.774;2022-09-28T22:19:31;10.02;;;3.80;;
29774;SDS011;16676;51.202;6.774;2022-09-28T22:23:33;9.30;;;3.40;;
29774;SDS011;16676;51.202;6.774;2022-09-28T22:27:36;10.45;;;4.05;;
29774;SDS011;16676;51.202;6.774;2022-09-28T22:31:40;11.07;;;4.10;;
29774;SDS011;16676;51.202;6.774;2022-09-28T22:35:43;7.25;;;3.65;;
29774;SDS011;16676;51.202;6.774;2022-09-28T22:39:48;9.27;;;3.95;;
29774;SDS011;16676;51.202;6.774;2022-09-28T22:43:50;7.35;;;3.58;;
29774;SDS011;16676;51.202;6.774;2022-09-28T22:47:53;7.18;;;3.33;;
29774;SDS011;16676;51.202;6.774;2022-09-28T22:51:57;9.70;;;3.72;;
29774;SDS011;16676;51.202;6.774;2022-09-28T22:55:59;8.30;;;3.22;;
29774;SDS011;16676;51.202;6.774;2022-09-28T23:00:04;7.35;;;3.42;;
29774;SDS011;16676;51.202;6.774;2022-09-28T23:04:07;8.40;;;3.72;;
29774;SDS011;16676;51.202;6.774;2022-09-28T23:08:11;8.70;;;3.58;;
29774;SDS011;16676;51.202;6.774;2022-09-28T23:12:12;7.82;;;3.45;;
29774;SDS011;16676;51.202;6.774;2022-09-28T23:16:14;7.80;;;3.20;;
29774;SDS011;16676;51.202;6.774;2022-09-28T23:20:16;6.57;;;2.92;;
29774;SDS011;16676;51.202;6.774;2022-09-28T23:24:20;7.95;;;3.42;;
29774;SDS011;16676;51.202;6.774;2022-09-28T23:28:22;7.13;;;3.10;;
29774;SDS011;16676;51.202;6.774;2022-09-28T23:32:25;6.60;;;3.45;;
29774;SDS011;16676;51.202;6.774;2022-09-28T23:36:27;6.57;;;3.40;;
29774;SDS011;16676;51.202;6.774;2022-09-28T23:40:31;5.68;;;3.10;;
29774;SDS011;16676;51.202;6.774;2022-09-28T23:44:33;6.07;;;3.30;;
29774;SDS011;16676;51.202;6.774;2022-09-28T23:48:35;10.60;;;3.42;;
29774;SDS011;16676;51.202;6.774;2022-09-28T23:52:37;7.32;;;3.42;;
29774;SDS011;16676;51.202;6.774;2022-09-28T23:56:41;6.40;;;3.40;;
